createdAt,value
2018-12-05T00:01:40.423Z,16.80
2018-12-05T00:04:07.487Z,16.10
2018-12-05T00:06:34.559Z,15.00
2018-12-05T00:09:01.751Z,17.65
2018-12-05T00:11:28.945Z,14.75
2018-12-05T00:13:56.026Z,15.78
2018-12-05T00:16:23.082Z,17.87
2018-12-05T00:18:50.263Z,16.32
2018-12-05T00:21:17.397Z,19.55
2018-12-05T00:23:44.446Z,17.87
2018-12-05T00:26:11.651Z,17.35
2018-12-05T00:28:38.790Z,20.00
2018-12-05T00:31:05.851Z,15.23
2018-12-05T00:33:33.131Z,19.02
2018-12-05T00:36:00.306Z,19.10
2018-12-05T00:38:27.379Z,21.48
2018-12-05T00:40:54.551Z,20.30
2018-12-05T00:43:21.679Z,20.37
2018-12-05T00:45:48.880Z,19.95
2018-12-05T00:48:16.159Z,18.98
2018-12-05T00:50:43.450Z,20.05
2018-12-05T00:53:10.651Z,18.95
2018-12-05T00:55:37.837Z,22.27
2018-12-05T00:58:05.018Z,17.32
2018-12-05T01:00:32.209Z,21.97
2018-12-05T01:02:59.330Z,20.17
2018-12-05T01:05:26.611Z,19.82
2018-12-05T01:07:53.791Z,19.30
2018-12-05T01:10:21.522Z,17.82
2018-12-05T01:12:48.578Z,25.68
2018-12-05T01:15:15.754Z,21.30
2018-12-05T01:17:42.839Z,20.88
2018-12-05T01:20:10.109Z,18.15
2018-12-05T01:22:37.299Z,21.10
2018-12-05T01:25:04.934Z,15.40
2018-12-05T01:27:32.018Z,21.17
2018-12-05T01:29:59.196Z,19.90
2018-12-05T01:32:26.254Z,18.67
2018-12-05T01:34:53.337Z,18.70
2018-12-05T01:37:20.425Z,18.77
2018-12-05T01:39:47.506Z,23.40
2018-12-05T01:42:14.798Z,19.80
2018-12-05T01:44:41.971Z,22.42
2018-12-05T01:47:09.055Z,19.73
2018-12-05T01:49:36.124Z,20.35
2018-12-05T01:52:03.398Z,17.70
2018-12-05T01:54:30.466Z,21.97
2018-12-05T01:56:57.659Z,21.97
2018-12-05T01:59:24.834Z,22.98
2018-12-05T02:01:51.998Z,22.80
2018-12-05T02:04:19.198Z,18.70
2018-12-05T02:06:46.591Z,18.37
2018-12-05T02:09:13.886Z,19.00
2018-12-05T02:11:40.947Z,16.10
2018-12-05T02:14:08.021Z,20.45
2018-12-05T02:16:35.407Z,19.57
2018-12-05T02:19:03.691Z,22.37
2018-12-05T02:21:30.776Z,22.73
2018-12-05T02:23:57.834Z,18.67
2018-12-05T02:26:24.906Z,20.27
2018-12-05T02:28:52.091Z,21.25
2018-12-05T02:31:20.235Z,23.87
2018-12-05T02:33:47.314Z,19.82
2018-12-05T02:36:14.386Z,24.27
2018-12-05T02:38:41.444Z,19.23
2018-12-05T02:41:08.508Z,23.35
2018-12-05T02:43:35.682Z,19.70
2018-12-05T02:46:02.966Z,20.50
2018-12-05T02:48:30.136Z,22.65
2018-12-05T02:50:57.539Z,23.00
2018-12-05T02:53:24.595Z,18.60
2018-12-05T02:55:51.762Z,19.57
2018-12-05T02:58:19.054Z,18.60
2018-12-05T03:00:46.225Z,20.92
2018-12-05T03:03:13.303Z,20.10
2018-12-05T03:05:40.638Z,18.12
2018-12-05T03:08:07.811Z,23.55
2018-12-05T03:10:34.991Z,24.05
2018-12-05T03:13:02.054Z,21.02
2018-12-05T03:15:29.260Z,20.72
2018-12-05T03:17:56.458Z,22.60
2018-12-05T03:20:23.568Z,23.42
2018-12-05T03:22:50.726Z,22.87
2018-12-05T03:25:18.057Z,27.77
2018-12-05T03:27:45.172Z,20.75
2018-12-05T03:30:15.916Z,25.30
2018-12-05T03:32:42.975Z,19.77
2018-12-05T03:35:10.048Z,23.25
2018-12-05T03:37:37.103Z,20.75
2018-12-05T03:40:05.118Z,22.73
2018-12-05T03:42:32.194Z,21.87
2018-12-05T03:44:59.256Z,20.75
2018-12-05T03:47:26.406Z,22.27
2018-12-05T03:49:59.266Z,20.45
2018-12-05T03:52:26.323Z,19.13
2018-12-05T03:54:53.500Z,18.07
2018-12-05T03:57:20.569Z,16.62
2018-12-05T03:59:47.706Z,19.87
2018-12-05T04:02:14.784Z,19.52
2018-12-05T04:04:41.857Z,20.52
2018-12-05T04:07:08.919Z,19.00
2018-12-05T04:09:35.992Z,17.70
2018-12-05T04:12:03.187Z,20.45
2018-12-05T04:14:30.363Z,18.60
2018-12-05T04:16:57.451Z,17.80
2018-12-05T04:19:24.643Z,20.30
2018-12-05T04:21:51.958Z,19.82
2018-12-05T04:24:19.030Z,19.77
2018-12-05T04:26:46.100Z,17.05
2018-12-05T04:29:13.185Z,18.67
2018-12-05T04:31:40.443Z,19.23
2018-12-05T04:34:07.518Z,21.90
2018-12-05T04:36:34.716Z,21.35
2018-12-05T04:39:02.168Z,18.80
2018-12-05T04:41:29.231Z,21.73
2018-12-05T04:43:56.290Z,19.02
2018-12-05T04:46:23.458Z,18.87
2018-12-05T04:48:50.518Z,20.55
2018-12-05T04:51:17.827Z,16.05
2018-12-05T04:53:44.891Z,19.65
2018-12-05T04:56:12.102Z,17.77
2018-12-05T04:58:39.267Z,20.37
2018-12-05T05:01:06.473Z,17.65
2018-12-05T05:03:33.646Z,19.75
2018-12-05T05:06:00.728Z,20.30
2018-12-05T05:08:27.899Z,17.27
2018-12-05T05:10:54.967Z,16.55
2018-12-05T05:13:22.038Z,21.10
2018-12-05T05:15:49.218Z,17.98
2018-12-05T05:18:16.286Z,17.07
2018-12-05T05:20:43.360Z,15.32
2018-12-05T05:23:10.651Z,20.60
2018-12-05T05:25:37.931Z,20.37
2018-12-05T05:28:05.000Z,17.50
2018-12-05T05:30:32.067Z,16.73
2018-12-05T05:32:59.236Z,16.65
2018-12-05T05:35:26.296Z,16.12
2018-12-05T05:37:53.350Z,18.55
2018-12-05T05:40:20.406Z,14.50
2018-12-05T05:42:47.462Z,16.07
2018-12-05T05:45:14.558Z,15.72
2018-12-05T05:47:41.850Z,15.68
2018-12-05T05:50:10.127Z,18.27
2018-12-05T05:52:37.307Z,17.60
2018-12-05T05:55:04.970Z,19.77
2018-12-05T05:57:32.038Z,19.27
2018-12-05T05:59:59.120Z,17.52
2018-12-05T06:02:26.186Z,18.57
2018-12-05T06:04:53.256Z,15.25
2018-12-05T06:07:20.550Z,19.07
2018-12-05T06:09:47.718Z,18.27
2018-12-05T06:12:14.794Z,16.82
2018-12-05T06:14:41.970Z,18.52
2018-12-05T06:17:09.075Z,18.32
2018-12-05T06:19:36.155Z,18.37
2018-12-05T06:22:03.361Z,17.82
2018-12-05T06:24:30.921Z,15.30
2018-12-05T06:26:58.743Z,16.95
2018-12-05T06:29:25.882Z,16.62
2018-12-05T06:31:53.047Z,15.75
2018-12-05T06:34:20.097Z,16.02
2018-12-05T06:36:47.167Z,18.55
2018-12-05T06:39:14.256Z,15.72
2018-12-05T06:41:41.331Z,15.43
2018-12-05T06:44:08.503Z,16.40
2018-12-05T06:46:35.579Z,15.23
2018-12-05T06:49:02.762Z,18.25
2018-12-05T06:51:29.955Z,21.42
2018-12-05T06:53:57.141Z,15.58
2018-12-05T06:56:24.616Z,19.98
2018-12-05T06:58:51.687Z,15.63
2018-12-05T07:01:18.769Z,14.80
2018-12-05T07:03:45.951Z,15.45
2018-12-05T07:06:13.247Z,15.50
2018-12-05T07:08:40.356Z,14.85
2018-12-05T07:11:07.539Z,13.70
2018-12-05T07:13:34.602Z,15.60
2018-12-05T07:16:01.682Z,12.65
2018-12-05T07:18:28.766Z,15.28
2018-12-05T07:20:55.834Z,18.15
2018-12-05T07:23:22.914Z,13.35
2018-12-05T07:25:50.103Z,17.12
2018-12-05T07:28:17.183Z,14.58
2018-12-05T07:30:44.363Z,17.23
2018-12-05T07:33:11.460Z,14.80
2018-12-05T07:35:38.613Z,14.53
2018-12-05T07:38:05.799Z,13.45
2018-12-05T07:40:32.986Z,16.55
2018-12-05T07:43:00.199Z,17.95
2018-12-05T07:45:27.278Z,14.58
2018-12-05T07:47:54.451Z,13.43
2018-12-05T07:50:21.540Z,18.65
2018-12-05T07:52:48.735Z,16.95
2018-12-05T07:55:15.923Z,13.05
2018-12-05T07:57:43.211Z,15.60
2018-12-05T08:00:10.459Z,13.93
2018-12-05T08:02:37.539Z,16.25
2018-12-05T08:05:04.719Z,12.37
2018-12-05T08:07:31.876Z,14.78
2018-12-05T08:09:58.982Z,11.63
2018-12-05T08:12:26.102Z,14.50
2018-12-05T08:14:53.210Z,12.05
2018-12-05T08:17:20.319Z,15.88
2018-12-05T08:19:48.296Z,10.63
2018-12-05T08:22:15.994Z,13.22
2018-12-05T08:24:43.088Z,14.50
2018-12-05T08:27:10.164Z,13.85
2018-12-05T08:29:37.254Z,13.10
2018-12-05T08:32:05.432Z,12.53
2018-12-05T08:34:32.718Z,11.22
2018-12-05T08:36:59.907Z,12.53
2018-12-05T08:39:26.988Z,12.90
2018-12-05T08:41:54.092Z,14.28
2018-12-05T08:44:21.174Z,13.93
2018-12-05T08:46:48.306Z,15.25
2018-12-05T08:49:15.382Z,14.83
2018-12-05T08:51:42.671Z,15.00
2018-12-05T08:54:09.749Z,12.55
2018-12-05T08:56:36.928Z,15.20
2018-12-05T08:59:04.034Z,15.23
2018-12-05T09:01:31.320Z,15.80
2018-12-05T09:03:58.448Z,11.37
2018-12-05T09:06:25.628Z,14.13
2018-12-05T09:08:52.810Z,16.00
2018-12-05T09:11:19.883Z,15.57
2018-12-05T09:13:46.971Z,17.53
2018-12-05T09:16:14.141Z,14.70
2018-12-05T09:18:41.203Z,13.27
2018-12-05T09:21:08.399Z,16.60
2018-12-05T09:23:35.475Z,12.33
2018-12-05T09:26:02.778Z,18.83
2018-12-05T09:28:30.103Z,15.00
2018-12-05T09:30:57.454Z,15.60
2018-12-05T09:33:24.515Z,16.50
2018-12-05T09:35:51.601Z,13.63
2018-12-05T09:38:18.883Z,14.10
2018-12-05T09:40:45.959Z,14.07
2018-12-05T09:43:13.059Z,15.33
2018-12-05T09:45:40.334Z,15.73
2018-12-05T09:48:07.507Z,15.37
2018-12-05T09:50:34.572Z,14.67
2018-12-05T09:53:01.752Z,14.23
2018-12-05T09:55:28.826Z,16.63
2018-12-05T09:57:55.894Z,14.80
2018-12-05T10:00:23.096Z,18.23
2018-12-05T10:02:50.263Z,18.43
2018-12-05T10:05:17.554Z,15.97
2018-12-05T10:07:44.754Z,15.03
2018-12-05T10:10:11.935Z,15.70
2018-12-05T10:12:39.123Z,13.60
2018-12-05T10:15:06.816Z,16.17
2018-12-05T10:17:34.002Z,16.47
2018-12-05T10:20:01.107Z,17.87
2018-12-05T10:22:28.401Z,16.13
2018-12-05T10:24:55.579Z,15.83
2018-12-05T10:27:22.687Z,16.87
2018-12-05T10:29:49.767Z,18.10
2018-12-05T10:32:16.818Z,19.13
2018-12-05T10:34:43.903Z,19.43
2018-12-05T10:37:10.979Z,16.43
2018-12-05T10:39:38.038Z,16.07
2018-12-05T10:42:05.344Z,18.27
2018-12-05T10:44:32.410Z,17.17
2018-12-05T10:46:59.724Z,17.80
2018-12-05T10:49:26.915Z,17.87
2018-12-05T10:51:53.998Z,17.07
2018-12-05T10:54:21.170Z,18.07
2018-12-05T10:56:48.539Z,18.20
2018-12-05T10:59:15.682Z,22.80
2018-12-05T11:01:48.626Z,19.23
2018-12-05T11:04:21.450Z,18.47
2018-12-05T11:06:54.439Z,16.43
2018-12-05T11:09:27.362Z,23.03
2018-12-05T11:12:00.219Z,19.93
2018-12-05T11:14:33.307Z,19.87
2018-12-05T11:17:06.048Z,21.47
2018-12-05T11:19:38.927Z,20.60
2018-12-05T11:24:15.140Z,17.13
2018-12-05T11:26:42.531Z,18.97
2018-12-05T11:29:10.626Z,23.30
2018-12-05T11:31:37.682Z,18.07
2018-12-05T11:34:04.860Z,21.87
2018-12-05T11:36:31.927Z,24.57
2018-12-05T11:38:59.120Z,21.03
2018-12-05T11:41:26.297Z,20.60
2018-12-05T11:43:53.444Z,20.03
2018-12-05T11:46:20.744Z,22.03
2018-12-05T11:48:47.985Z,19.07
2018-12-05T11:51:15.221Z,24.80
2018-12-05T11:53:42.406Z,18.90
2018-12-05T11:56:09.470Z,20.90
2018-12-05T11:58:36.544Z,21.13
2018-12-05T12:01:03.826Z,18.40
2018-12-05T12:03:31.008Z,21.50
2018-12-05T12:05:58.212Z,22.17
2018-12-05T12:08:25.398Z,22.20
2018-12-05T12:10:52.693Z,22.03
2018-12-05T12:13:19.975Z,23.80
2018-12-05T12:15:47.147Z,20.83
2018-12-05T12:18:14.334Z,21.77
2018-12-05T12:20:41.531Z,24.63
2018-12-05T12:23:08.652Z,24.97
2018-12-05T12:25:35.946Z,19.30
2018-12-05T12:28:03.136Z,19.83
2018-12-05T12:30:30.231Z,18.43
2018-12-05T12:32:57.284Z,23.57
2018-12-05T12:35:24.451Z,17.90
2018-12-05T12:37:51.518Z,22.47
2018-12-05T12:40:18.700Z,22.50
2018-12-05T12:42:45.879Z,21.27
2018-12-05T12:45:13.183Z,17.97
2018-12-05T12:47:40.471Z,23.63
2018-12-05T12:50:07.764Z,20.00
2018-12-05T12:52:34.946Z,18.57
2018-12-05T12:55:02.304Z,18.67
2018-12-05T12:57:29.391Z,25.30
2018-12-05T12:59:56.936Z,20.93
2018-12-05T13:02:24.235Z,22.37
2018-12-05T13:04:51.408Z,22.47
2018-12-05T13:07:18.614Z,23.23
2018-12-05T13:09:45.779Z,23.60
2018-12-05T13:12:17.584Z,20.97
2018-12-05T13:14:44.671Z,25.33
2018-12-05T13:17:11.859Z,21.93
2018-12-05T13:19:38.943Z,21.40
2018-12-05T13:22:06.110Z,24.47
2018-12-05T13:24:33.174Z,22.43
2018-12-05T13:27:00.359Z,21.93
2018-12-05T13:29:27.510Z,20.37
2018-12-05T13:31:54.583Z,23.13
2018-12-05T13:34:21.836Z,26.90
2018-12-05T13:36:49.055Z,22.17
2018-12-05T13:39:16.139Z,23.03
2018-12-05T13:41:43.316Z,23.40
2018-12-05T13:44:10.386Z,24.10
2018-12-05T13:46:37.563Z,21.87
2018-12-05T13:49:04.863Z,20.67
2018-12-05T13:51:31.978Z,21.70
2018-12-05T13:53:59.058Z,22.40
2018-12-05T13:56:26.238Z,24.87
2018-12-05T13:58:53.386Z,23.23
2018-12-05T14:01:20.466Z,22.13
2018-12-05T14:03:47.575Z,25.67
2018-12-05T14:06:14.766Z,25.30
2018-12-05T14:08:41.947Z,22.57
2018-12-05T14:11:09.011Z,24.27
2018-12-05T14:13:36.091Z,25.10
2018-12-05T14:16:03.410Z,22.70
2018-12-05T14:18:30.526Z,24.13
2018-12-05T14:20:57.698Z,26.97
2018-12-05T14:23:24.786Z,22.70
2018-12-05T14:25:52.125Z,26.13
2018-12-05T14:28:19.275Z,23.23
2018-12-05T14:30:46.619Z,22.83
2018-12-05T14:33:13.754Z,23.57
2018-12-05T14:35:40.880Z,23.67
2018-12-05T14:38:07.974Z,23.67
2018-12-05T14:40:35.188Z,25.20
2018-12-05T14:43:02.403Z,28.13
2018-12-05T14:45:29.579Z,28.00
2018-12-05T14:47:56.764Z,26.53
2018-12-05T14:50:24.055Z,22.67
2018-12-05T14:52:51.122Z,22.27
2018-12-05T14:55:18.210Z,23.03
2018-12-05T14:57:45.527Z,25.13
2018-12-05T15:00:13.093Z,22.93
2018-12-05T15:02:40.274Z,25.37
2018-12-05T15:05:07.654Z,25.33
2018-12-05T15:07:34.835Z,25.57
2018-12-05T15:10:02.249Z,24.70
2018-12-05T15:12:29.434Z,23.90
2018-12-05T15:14:56.507Z,24.23
2018-12-05T15:17:23.811Z,22.80
2018-12-05T15:19:50.882Z,21.37
2018-12-05T15:22:17.959Z,25.13
2018-12-05T15:24:45.098Z,21.13
2018-12-05T15:27:12.197Z,24.83
2018-12-05T15:29:39.402Z,23.00
2018-12-05T15:32:06.479Z,20.63
2018-12-05T15:34:33.654Z,25.50
2018-12-05T15:37:00.727Z,22.97
2018-12-05T15:39:27.904Z,22.60
2018-12-05T15:41:54.988Z,22.57
2018-12-05T15:44:22.070Z,20.93
2018-12-05T15:46:49.164Z,20.70
2018-12-05T15:49:16.371Z,20.03
2018-12-05T15:51:43.568Z,20.37
2018-12-05T15:54:10.877Z,21.13
2018-12-05T15:56:37.963Z,19.80
2018-12-05T15:59:05.264Z,20.63
2018-12-05T16:01:32.335Z,20.53
2018-12-05T16:03:59.569Z,19.37
2018-12-05T16:06:26.760Z,18.67
2018-12-05T16:08:53.946Z,20.03
2018-12-05T16:11:21.149Z,20.33
2018-12-05T16:13:48.227Z,18.10
2018-12-05T16:16:15.302Z,19.90
2018-12-05T16:18:42.367Z,15.83
2018-12-05T16:21:09.458Z,17.57
2018-12-05T16:23:36.550Z,16.50
2018-12-05T16:26:10.422Z,17.77
2018-12-05T16:28:32.915Z,19.93
2018-12-05T16:31:00.142Z,19.47
2018-12-05T16:33:27.364Z,15.33
2018-12-05T16:35:54.448Z,18.33
2018-12-05T16:38:21.547Z,17.40
2018-12-05T16:40:48.654Z,19.17
2018-12-05T16:43:15.719Z,16.00
2018-12-05T16:45:42.795Z,16.73
2018-12-05T16:48:09.871Z,16.03
2018-12-05T16:50:36.954Z,15.30
2018-12-05T16:53:04.250Z,16.23
2018-12-05T16:55:31.354Z,18.30
2018-12-05T16:57:58.438Z,19.03
2018-12-05T17:00:25.618Z,17.53
2018-12-05T17:02:52.700Z,20.00
2018-12-05T17:05:19.899Z,17.77
2018-12-05T17:07:47.310Z,13.53
2018-12-05T17:10:14.393Z,19.73
2018-12-05T17:12:41.466Z,22.23
2018-12-05T17:15:08.663Z,19.13
2018-12-05T17:17:35.879Z,16.00
2018-12-05T17:20:03.655Z,16.83
2018-12-05T17:22:30.982Z,16.77
2018-12-05T17:24:58.160Z,15.13
2018-12-05T17:27:25.311Z,16.73
2018-12-05T17:29:52.420Z,15.77
2018-12-05T17:32:19.596Z,12.93
2018-12-05T17:34:46.635Z,16.40
2018-12-05T17:37:13.819Z,17.07
2018-12-05T17:39:41.093Z,14.40
2018-12-05T17:42:08.296Z,13.83
2018-12-05T17:44:35.364Z,14.50
2018-12-05T17:47:02.563Z,15.73
2018-12-05T17:49:29.731Z,14.63
2018-12-05T17:51:57.026Z,18.80
2018-12-05T17:54:24.219Z,17.37
2018-12-05T17:56:51.308Z,16.77
2018-12-05T17:59:18.507Z,13.67
2018-12-05T18:01:45.687Z,17.40
2018-12-05T18:04:12.877Z,14.97
2018-12-05T18:06:39.948Z,15.47
2018-12-05T18:09:07.887Z,16.10
2018-12-05T18:11:35.127Z,16.83
2018-12-05T18:14:02.339Z,15.23
2018-12-05T18:16:29.418Z,17.03
2018-12-05T18:18:56.487Z,17.23
2018-12-05T18:21:23.563Z,17.00
2018-12-05T18:23:50.632Z,16.40
2018-12-05T18:26:17.943Z,16.00
2018-12-05T18:28:45.029Z,18.07
2018-12-05T18:31:12.196Z,16.97
2018-12-05T18:33:39.246Z,15.63
2018-12-05T18:36:06.471Z,14.53
2018-12-05T18:38:33.527Z,17.60
2018-12-05T18:41:00.719Z,16.27
2018-12-05T18:43:27.890Z,16.67
2018-12-05T18:45:55.104Z,18.90
2018-12-05T18:48:22.412Z,16.73
2018-12-05T18:50:49.667Z,14.73
2018-12-05T18:53:16.846Z,18.53
2018-12-05T18:55:44.044Z,16.73
2018-12-05T18:58:11.275Z,15.80
2018-12-05T19:00:38.479Z,18.00
2018-12-05T19:03:05.559Z,18.03
2018-12-05T19:05:32.632Z,18.27
2018-12-05T19:07:59.930Z,18.37
2018-12-05T19:10:27.015Z,16.13
2018-12-05T19:12:54.149Z,16.40
2018-12-05T19:15:21.499Z,19.43
2018-12-05T19:17:48.635Z,19.23
2018-12-05T19:20:15.831Z,17.40
2018-12-05T19:22:42.906Z,17.67
2018-12-05T19:25:10.198Z,15.47
2018-12-05T19:27:37.295Z,17.50
2018-12-05T19:30:06.250Z,17.63
2018-12-05T19:32:33.390Z,16.97
2018-12-05T19:35:00.467Z,20.77
2018-12-05T19:37:27.545Z,22.07
2018-12-05T19:39:54.615Z,20.50
2018-12-05T19:42:21.800Z,23.10
2018-12-05T19:44:48.932Z,24.03
2018-12-05T19:47:16.111Z,21.23
2018-12-05T19:49:43.183Z,17.70
2018-12-05T19:52:10.466Z,22.80
2018-12-05T19:54:37.522Z,20.87
2018-12-05T19:57:04.822Z,19.17
2018-12-05T19:59:32.020Z,20.70
2018-12-05T20:01:59.207Z,19.30
2018-12-05T20:04:26.404Z,19.47
2018-12-05T20:06:53.467Z,19.13
2018-12-05T20:09:20.651Z,20.93
2018-12-05T20:11:47.722Z,18.53
2018-12-05T20:14:20.671Z,23.63
2018-12-05T20:16:47.734Z,18.80
2018-12-05T20:19:15.064Z,15.97
2018-12-05T20:21:42.151Z,15.67
2018-12-05T20:24:09.222Z,17.40
2018-12-05T20:26:36.308Z,22.03
2018-12-05T20:29:03.598Z,17.63
2018-12-05T20:31:30.775Z,18.47
2018-12-05T20:33:57.837Z,17.50
2018-12-05T20:36:25.007Z,16.77
2018-12-05T20:38:52.059Z,17.93
2018-12-05T20:41:19.255Z,17.90
2018-12-05T20:43:46.341Z,18.03
2018-12-05T20:46:13.718Z,21.07
2018-12-05T20:48:40.911Z,20.33
2018-12-05T20:51:07.999Z,18.93
2018-12-05T20:53:35.074Z,20.67
2018-12-05T20:56:02.387Z,20.30
2018-12-05T20:58:29.559Z,19.63
2018-12-05T21:00:57.277Z,19.43
2018-12-05T21:03:24.471Z,19.37
2018-12-05T21:05:51.535Z,19.27
2018-12-05T21:08:18.748Z,18.07
2018-12-05T21:10:45.823Z,19.30
2018-12-05T21:13:13.043Z,19.70
2018-12-05T21:15:40.111Z,22.07
2018-12-05T21:18:07.282Z,20.97
2018-12-05T21:20:34.684Z,19.20
2018-12-05T21:23:01.863Z,23.60
2018-12-05T21:25:28.951Z,21.93
2018-12-05T21:27:56.019Z,23.57
2018-12-05T21:30:23.324Z,19.67
2018-12-05T21:32:50.387Z,21.13
2018-12-05T21:35:17.452Z,23.80
2018-12-05T21:37:44.575Z,18.63
2018-12-05T21:40:11.883Z,18.33
2018-12-05T21:42:39.062Z,19.67
2018-12-05T21:45:06.400Z,21.77
2018-12-05T21:47:33.490Z,22.10
2018-12-05T21:50:00.686Z,17.40
2018-12-05T21:52:28.004Z,19.90
2018-12-05T21:54:55.093Z,19.00
2018-12-05T21:57:22.273Z,18.67
2018-12-05T21:59:49.353Z,20.63
2018-12-05T22:02:16.546Z,20.43
2018-12-05T22:04:43.637Z,19.10
2018-12-05T22:07:10.708Z,20.40
2018-12-05T22:09:37.804Z,19.80
2018-12-05T22:12:04.987Z,19.40
2018-12-05T22:14:32.056Z,17.33
2018-12-05T22:16:59.247Z,19.07
2018-12-05T22:19:26.350Z,21.43
2018-12-05T22:21:53.543Z,19.83
2018-12-05T22:24:20.748Z,18.70
2018-12-05T22:26:47.978Z,17.93
2018-12-05T22:29:15.039Z,17.77
2018-12-05T22:31:42.339Z,17.23
2018-12-05T22:34:09.562Z,18.03
2018-12-05T22:36:36.632Z,18.73
2018-12-05T22:39:06.486Z,21.90
2018-12-05T22:41:33.558Z,19.53
2018-12-05T22:44:00.610Z,19.53
2018-12-05T22:46:27.686Z,23.67
2018-12-05T22:48:54.751Z,21.10
2018-12-05T22:51:21.831Z,19.63
2018-12-05T22:53:49.010Z,19.60
2018-12-05T22:56:16.074Z,18.50
2018-12-05T22:58:43.131Z,19.00
2018-12-05T23:01:10.414Z,23.43
2018-12-05T23:03:37.477Z,19.07
2018-12-05T23:06:04.763Z,20.77
2018-12-05T23:08:31.843Z,17.30
2018-12-05T23:10:59.014Z,17.20
2018-12-05T23:13:26.081Z,18.07
2018-12-05T23:15:53.226Z,18.40
2018-12-05T23:18:20.407Z,18.10
2018-12-05T23:20:47.715Z,14.57
2018-12-05T23:23:14.783Z,16.23
2018-12-05T23:25:41.839Z,17.27
2018-12-05T23:28:08.962Z,16.37
2018-12-05T23:30:36.126Z,18.10
2018-12-05T23:33:03.454Z,17.57
2018-12-05T23:35:30.619Z,16.30
2018-12-05T23:37:57.847Z,15.40
2018-12-05T23:40:24.906Z,14.00
2018-12-05T23:42:52.101Z,13.97
2018-12-05T23:45:19.598Z,13.43
2018-12-05T23:47:46.667Z,13.73
2018-12-05T23:50:13.870Z,16.87
2018-12-05T23:52:40.935Z,18.20
2018-12-05T23:55:08.148Z,15.40
2018-12-05T23:57:35.218Z,13.77
